Constantine, Algeria
Current Conditions -  °F | °C
As of 9:00 AM on Wednesday 22 Oct 2014 (Local Time) from DABC Reporting Station
Scattered Clouds Scattered Clouds  
Wind Chill: 64°   Ceiling: Unl
Heat Index: 64°   Visibility: 6mi
Dew Point: 41°   Wind: 0mph
Humidity: 42%   Direction: NA
Pressure: 30.18"   Gusts: NA
Location:  36.36°N, 6.6°E
Report Text: DABC 220800Z 00000KT 9999 FEW030 SCT200 18/05 Q1022
Loading
Personal Weather Stations






























Interactive Weather Map
Tropical Storm Tracking
New forecast layout! Learn more

10-Day Weather Forecast

Advertisements
Track Severe Weather on mobile